sensor_id;sensor_type;location;lat;lon;timestamp;temperature;humidity
58865;DHT22;45702;52.982;6.658;2023-06-19T00:02:09;21.60;86.70
58865;DHT22;45702;52.982;6.658;2023-06-19T00:04:35;21.60;86.60
58865;DHT22;45702;52.982;6.658;2023-06-19T00:07:01;21.50;86.10
58865;DHT22;45702;52.982;6.658;2023-06-19T00:09:27;21.50;86.60
58865;DHT22;45702;52.982;6.658;2023-06-19T00:11:52;21.60;85.80
58865;DHT22;45702;52.982;6.658;2023-06-19T00:14:18;21.50;85.10
58865;DHT22;45702;52.982;6.658;2023-06-19T00:16:44;21.50;84.70
58865;DHT22;45702;52.982;6.658;2023-06-19T00:19:10;21.50;84.20
58865;DHT22;45702;52.982;6.658;2023-06-19T00:21:38;21.60;84.00
58865;DHT22;45702;52.982;6.658;2023-06-19T00:24:04;21.60;83.80
58865;DHT22;45702;52.982;6.658;2023-06-19T00:26:30;21.50;83.70
58865;DHT22;45702;52.982;6.658;2023-06-19T00:28:56;21.50;83.60
58865;DHT22;45702;52.982;6.658;2023-06-19T00:31:22;21.50;83.20
58865;DHT22;45702;52.982;6.658;2023-06-19T00:33:47;21.50;82.40
58865;DHT22;45702;52.982;6.658;2023-06-19T00:36:16;21.50;81.40
58865;DHT22;45702;52.982;6.658;2023-06-19T00:38:42;21.60;80.70
58865;DHT22;45702;52.982;6.658;2023-06-19T00:41:08;21.60;80.00
58865;DHT22;45702;52.982;6.658;2023-06-19T00:43:34;21.60;79.50
58865;DHT22;45702;52.982;6.658;2023-06-19T00:46:00;21.60;79.40
58865;DHT22;45702;52.982;6.658;2023-06-19T00:48:28;21.60;78.90
58865;DHT22;45702;52.982;6.658;2023-06-19T00:50:55;21.60;78.00
58865;DHT22;45702;52.982;6.658;2023-06-19T00:53:23;21.60;77.40
58865;DHT22;45702;52.982;6.658;2023-06-19T00:55:51;21.60;77.00
58865;DHT22;45702;52.982;6.658;2023-06-19T00:58:20;21.60;76.40
58865;DHT22;45702;52.982;6.658;2023-06-19T01:00:47;21.60;76.00
58865;DHT22;45702;52.982;6.658;2023-06-19T01:03:13;21.70;75.60
58865;DHT22;45702;52.982;6.658;2023-06-19T01:05:39;21.70;75.10
58865;DHT22;45702;52.982;6.658;2023-06-19T01:11:15;21.70;75.00
58865;DHT22;45702;52.982;6.658;2023-06-19T01:14:10;21.70;74.90
58865;DHT22;45702;52.982;6.658;2023-06-19T01:16:37;21.70;74.60
58865;DHT22;45702;52.982;6.658;2023-06-19T01:19:04;21.70;74.30
58865;DHT22;45702;52.982;6.658;2023-06-19T01:21:30;21.70;74.50
58865;DHT22;45702;52.982;6.658;2023-06-19T01:23:56;21.70;73.90
58865;DHT22;45702;52.982;6.658;2023-06-19T01:26:23;21.70;73.70
58865;DHT22;45702;52.982;6.658;2023-06-19T01:28:53;21.70;73.70
58865;DHT22;45702;52.982;6.658;2023-06-19T01:31:40;21.70;73.20
58865;DHT22;45702;52.982;6.658;2023-06-19T01:34:08;21.70;72.90
58865;DHT22;45702;52.982;6.658;2023-06-19T01:36:36;21.70;72.60
58865;DHT22;45702;52.982;6.658;2023-06-19T01:39:03;21.70;71.90
58865;DHT22;45702;52.982;6.658;2023-06-19T01:41:30;21.70;71.70
58865;DHT22;45702;52.982;6.658;2023-06-19T01:43:57;21.70;71.90
58865;DHT22;45702;52.982;6.658;2023-06-19T01:46:23;21.70;72.00
58865;DHT22;45702;52.982;6.658;2023-06-19T01:48:49;21.60;71.20
58865;DHT22;45702;52.982;6.658;2023-06-19T01:51:15;21.70;70.70
58865;DHT22;45702;52.982;6.658;2023-06-19T01:53:41;21.70;70.20
58865;DHT22;45702;52.982;6.658;2023-06-19T01:56:07;21.70;69.90
58865;DHT22;45702;52.982;6.658;2023-06-19T01:58:33;21.70;70.00
58865;DHT22;45702;52.982;6.658;2023-06-19T02:00:59;21.70;69.90
58865;DHT22;45702;52.982;6.658;2023-06-19T02:03:24;21.70;69.80
58865;DHT22;45702;52.982;6.658;2023-06-19T02:05:50;21.70;69.50
58865;DHT22;45702;52.982;6.658;2023-06-19T02:08:16;21.70;69.40
58865;DHT22;45702;52.982;6.658;2023-06-19T02:10:42;21.70;69.70
58865;DHT22;45702;52.982;6.658;2023-06-19T02:13:07;21.70;69.90
58865;DHT22;45702;52.982;6.658;2023-06-19T02:15:33;21.70;70.00
58865;DHT22;45702;52.982;6.658;2023-06-19T02:17:59;21.70;69.80
58865;DHT22;45702;52.982;6.658;2023-06-19T02:20:25;21.70;69.50
58865;DHT22;45702;52.982;6.658;2023-06-19T02:22:51;21.70;69.20
58865;DHT22;45702;52.982;6.658;2023-06-19T02:25:17;21.70;68.90
58865;DHT22;45702;52.982;6.658;2023-06-19T02:27:43;21.70;68.70
58865;DHT22;45702;52.982;6.658;2023-06-19T02:30:09;21.70;68.60
58865;DHT22;45702;52.982;6.658;2023-06-19T02:32:35;21.70;68.90
58865;DHT22;45702;52.982;6.658;2023-06-19T02:35:00;21.80;68.70
58865;DHT22;45702;52.982;6.658;2023-06-19T02:37:26;21.80;68.60
58865;DHT22;45702;52.982;6.658;2023-06-19T02:39:51;21.80;68.70
58865;DHT22;45702;52.982;6.658;2023-06-19T02:42:21;21.80;68.70
58865;DHT22;45702;52.982;6.658;2023-06-19T02:44:51;21.80;69.10
58865;DHT22;45702;52.982;6.658;2023-06-19T02:47:17;21.80;69.40
58865;DHT22;45702;52.982;6.658;2023-06-19T02:49:43;21.80;69.60
58865;DHT22;45702;52.982;6.658;2023-06-19T02:52:08;21.80;69.70
58865;DHT22;45702;52.982;6.658;2023-06-19T02:54:34;21.80;69.90
58865;DHT22;45702;52.982;6.658;2023-06-19T02:57:00;21.80;70.10
58865;DHT22;45702;52.982;6.658;2023-06-19T02:59:25;21.90;70.40
58865;DHT22;45702;52.982;6.658;2023-06-19T03:01:51;21.90;70.50
58865;DHT22;45702;52.982;6.658;2023-06-19T03:04:17;21.90;70.70
58865;DHT22;45702;52.982;6.658;2023-06-19T03:06:43;21.90;70.90
58865;DHT22;45702;52.982;6.658;2023-06-19T03:09:08;21.90;71.10
58865;DHT22;45702;52.982;6.658;2023-06-19T03:11:41;22.00;71.40
58865;DHT22;45702;52.982;6.658;2023-06-19T03:14:07;22.00;71.70
58865;DHT22;45702;52.982;6.658;2023-06-19T03:16:34;22.00;71.90
58865;DHT22;45702;52.982;6.658;2023-06-19T03:19:01;22.10;72.00
58865;DHT22;45702;52.982;6.658;2023-06-19T03:21:26;22.00;72.10
58865;DHT22;45702;52.982;6.658;2023-06-19T03:23:52;22.10;72.30
58865;DHT22;45702;52.982;6.658;2023-06-19T03:26:20;22.10;72.40
58865;DHT22;45702;52.982;6.658;2023-06-19T03:28:45;22.10;72.60
58865;DHT22;45702;52.982;6.658;2023-06-19T03:31:14;22.10;72.80
58865;DHT22;45702;52.982;6.658;2023-06-19T03:33:40;22.10;72.90
58865;DHT22;45702;52.982;6.658;2023-06-19T03:36:06;22.00;73.10
58865;DHT22;45702;52.982;6.658;2023-06-19T03:38:31;22.00;73.40
58865;DHT22;45702;52.982;6.658;2023-06-19T03:40:57;22.00;73.80
58865;DHT22;45702;52.982;6.658;2023-06-19T03:43:23;22.00;74.20
58865;DHT22;45702;52.982;6.658;2023-06-19T03:45:49;22.00;74.50
58865;DHT22;45702;52.982;6.658;2023-06-19T03:48:16;22.00;75.00
58865;DHT22;45702;52.982;6.658;2023-06-19T03:50:42;22.00;75.50
58865;DHT22;45702;52.982;6.658;2023-06-19T03:53:08;22.00;76.20
58865;DHT22;45702;52.982;6.658;2023-06-19T03:55:33;22.00;76.80
58865;DHT22;45702;52.982;6.658;2023-06-19T03:57:59;22.00;77.70
58865;DHT22;45702;52.982;6.658;2023-06-19T04:00:25;22.00;78.50
58865;DHT22;45702;52.982;6.658;2023-06-19T04:02:51;21.90;79.10
58865;DHT22;45702;52.982;6.658;2023-06-19T04:05:16;21.80;79.50
58865;DHT22;45702;52.982;6.658;2023-06-19T04:07:42;21.80;80.00
58865;DHT22;45702;52.982;6.658;2023-06-19T04:10:08;21.80;80.50
58865;DHT22;45702;52.982;6.658;2023-06-19T04:12:34;21.80;81.30
58865;DHT22;45702;52.982;6.658;2023-06-19T04:14:59;21.80;81.70
58865;DHT22;45702;52.982;6.658;2023-06-19T04:17:25;21.70;82.00
58865;DHT22;45702;52.982;6.658;2023-06-19T04:19:51;21.70;82.80
58865;DHT22;45702;52.982;6.658;2023-06-19T04:22:17;21.70;83.40
58865;DHT22;45702;52.982;6.658;2023-06-19T04:24:42;21.70;83.80
58865;DHT22;45702;52.982;6.658;2023-06-19T04:27:09;21.60;84.50
58865;DHT22;45702;52.982;6.658;2023-06-19T04:29:40;21.60;85.10
58865;DHT22;45702;52.982;6.658;2023-06-19T04:32:07;21.60;85.60
58865;DHT22;45702;52.982;6.658;2023-06-19T04:34:41;21.60;86.00
58865;DHT22;45702;52.982;6.658;2023-06-19T04:37:11;21.60;86.40
58865;DHT22;45702;52.982;6.658;2023-06-19T04:39:37;21.50;86.90
58865;DHT22;45702;52.982;6.658;2023-06-19T04:42:03;21.50;87.30
58865;DHT22;45702;52.982;6.658;2023-06-19T04:44:29;21.50;88.00
58865;DHT22;45702;52.982;6.658;2023-06-19T04:46:59;21.50;88.90
58865;DHT22;45702;52.982;6.658;2023-06-19T04:49:29;21.50;89.20
58865;DHT22;45702;52.982;6.658;2023-06-19T04:51:56;21.40;89.60
58865;DHT22;45702;52.982;6.658;2023-06-19T04:54:22;21.40;90.10
58865;DHT22;45702;52.982;6.658;2023-06-19T04:56:48;21.40;90.30
58865;DHT22;45702;52.982;6.658;2023-06-19T04:59:14;21.40;90.60
58865;DHT22;45702;52.982;6.658;2023-06-19T05:01:43;21.40;90.90
58865;DHT22;45702;52.982;6.658;2023-06-19T05:04:09;21.30;91.00
58865;DHT22;45702;52.982;6.658;2023-06-19T05:06:36;21.30;91.30
58865;DHT22;45702;52.982;6.658;2023-06-19T05:09:02;21.30;91.50
58865;DHT22;45702;52.982;6.658;2023-06-19T05:11:28;21.30;91.90
58865;DHT22;45702;52.982;6.658;2023-06-19T05:13:54;21.20;92.00
58865;DHT22;45702;52.982;6.658;2023-06-19T05:16:19;21.20;92.20
58865;DHT22;45702;52.982;6.658;2023-06-19T05:18:45;21.20;92.30
58865;DHT22;45702;52.982;6.658;2023-06-19T05:21:11;21.20;92.50
58865;DHT22;45702;52.982;6.658;2023-06-19T05:23:37;21.20;92.70
58865;DHT22;45702;52.982;6.658;2023-06-19T05:26:06;21.20;93.00
58865;DHT22;45702;52.982;6.658;2023-06-19T05:28:32;21.20;93.10
58865;DHT22;45702;52.982;6.658;2023-06-19T05:30:58;21.20;93.40
58865;DHT22;45702;52.982;6.658;2023-06-19T05:33:23;21.10;93.60
58865;DHT22;45702;52.982;6.658;2023-06-19T05:35:49;21.10;93.80
58865;DHT22;45702;52.982;6.658;2023-06-19T05:38:20;21.20;93.90
58865;DHT22;45702;52.982;6.658;2023-06-19T05:40:46;21.20;94.00
58865;DHT22;45702;52.982;6.658;2023-06-19T05:43:12;21.30;94.30
58865;DHT22;45702;52.982;6.658;2023-06-19T05:45:38;21.30;94.30
58865;DHT22;45702;52.982;6.658;2023-06-19T05:48:09;21.30;94.60
58865;DHT22;45702;52.982;6.658;2023-06-19T05:51:23;21.30;94.60
58865;DHT22;45702;52.982;6.658;2023-06-19T05:53:53;21.30;94.70
58865;DHT22;45702;52.982;6.658;2023-06-19T05:56:22;21.30;95.00
58865;DHT22;45702;52.982;6.658;2023-06-19T05:58:48;21.30;95.20
58865;DHT22;45702;52.982;6.658;2023-06-19T06:01:14;21.30;95.40
58865;DHT22;45702;52.982;6.658;2023-06-19T06:03:39;21.40;95.60
58865;DHT22;45702;52.982;6.658;2023-06-19T06:06:05;21.40;95.60
58865;DHT22;45702;52.982;6.658;2023-06-19T06:08:31;21.40;95.70
58865;DHT22;45702;52.982;6.658;2023-06-19T06:10:57;21.40;95.80
58865;DHT22;45702;52.982;6.658;2023-06-19T06:13:23;21.50;96.00
58865;DHT22;45702;52.982;6.658;2023-06-19T06:15:52;21.60;96.00
58865;DHT22;45702;52.982;6.658;2023-06-19T06:18:19;21.60;96.10
58865;DHT22;45702;52.982;6.658;2023-06-19T06:20:45;21.70;96.20
58865;DHT22;45702;52.982;6.658;2023-06-19T06:23:10;21.70;96.20
58865;DHT22;45702;52.982;6.658;2023-06-19T06:25:36;21.60;96.20
58865;DHT22;45702;52.982;6.658;2023-06-19T06:28:02;21.70;96.40
58865;DHT22;45702;52.982;6.658;2023-06-19T06:30:27;21.70;96.50
58865;DHT22;45702;52.982;6.658;2023-06-19T06:32:53;21.60;96.60
58865;DHT22;45702;52.982;6.658;2023-06-19T06:35:19;21.60;96.70
58865;DHT22;45702;52.982;6.658;2023-06-19T06:37:45;21.60;96.80
58865;DHT22;45702;52.982;6.658;2023-06-19T06:40:12;21.50;97.10
58865;DHT22;45702;52.982;6.658;2023-06-19T06:42:38;21.50;97.30
58865;DHT22;45702;52.982;6.658;2023-06-19T06:45:05;21.50;97.70
58865;DHT22;45702;52.982;6.658;2023-06-19T06:47:32;21.50;98.00
58865;DHT22;45702;52.982;6.658;2023-06-19T06:49:58;21.40;98.50
58865;DHT22;45702;52.982;6.658;2023-06-19T06:52:24;21.30;98.90
58865;DHT22;45702;52.982;6.658;2023-06-19T06:54:50;21.30;99.30
58865;DHT22;45702;52.982;6.658;2023-06-19T06:57:16;21.30;99.70
58865;DHT22;45702;52.982;6.658;2023-06-19T06:59:42;21.20;99.90
58865;DHT22;45702;52.982;6.658;2023-06-19T07:02:08;21.20;99.90
58865;DHT22;45702;52.982;6.658;2023-06-19T07:04:34;21.20;99.90
58865;DHT22;45702;52.982;6.658;2023-06-19T07:07:00;21.20;99.90
58865;DHT22;45702;52.982;6.658;2023-06-19T07:09:25;21.20;99.90
58865;DHT22;45702;52.982;6.658;2023-06-19T07:11:52;21.20;99.90
58865;DHT22;45702;52.982;6.658;2023-06-19T07:14:17;21.20;99.90
58865;DHT22;45702;52.982;6.658;2023-06-19T07:16:44;21.20;99.90
58865;DHT22;45702;52.982;6.658;2023-06-19T07:19:13;21.20;99.90
58865;DHT22;45702;52.982;6.658;2023-06-19T07:21:39;21.10;99.90
58865;DHT22;45702;52.982;6.658;2023-06-19T07:24:05;21.10;99.90
58865;DHT22;45702;52.982;6.658;2023-06-19T07:26:31;21.10;99.90
58865;DHT22;45702;52.982;6.658;2023-06-19T07:28:57;21.10;99.90
58865;DHT22;45702;52.982;6.658;2023-06-19T07:31:23;21.20;99.90
58865;DHT22;45702;52.982;6.658;2023-06-19T07:33:49;21.20;99.90
58865;DHT22;45702;52.982;6.658;2023-06-19T07:36:15;21.20;99.90
58865;DHT22;45702;52.982;6.658;2023-06-19T07:38:45;21.20;99.90
58865;DHT22;45702;52.982;6.658;2023-06-19T07:41:11;21.20;99.90
58865;DHT22;45702;52.982;6.658;2023-06-19T07:43:37;21.20;99.90
58865;DHT22;45702;52.982;6.658;2023-06-19T07:46:03;21.20;99.90
58865;DHT22;45702;52.982;6.658;2023-06-19T07:48:29;21.20;99.90
58865;DHT22;45702;52.982;6.658;2023-06-19T07:50:55;21.10;99.90
58865;DHT22;45702;52.982;6.658;2023-06-19T07:53:20;21.10;99.90
58865;DHT22;45702;52.982;6.658;2023-06-19T07:55:46;21.20;99.90
58865;DHT22;45702;52.982;6.658;2023-06-19T07:58:12;21.20;99.90
58865;DHT22;45702;52.982;6.658;2023-06-19T08:00:38;21.10;99.90
58865;DHT22;45702;52.982;6.658;2023-06-19T08:03:04;21.10;99.90
58865;DHT22;45702;52.982;6.658;2023-06-19T08:05:30;21.10;99.90
58865;DHT22;45702;52.982;6.658;2023-06-19T08:07:56;21.10;99.90
58865;DHT22;45702;52.982;6.658;2023-06-19T08:10:22;21.10;99.90
58865;DHT22;45702;52.982;6.658;2023-06-19T08:12:48;21.10;99.90
58865;DHT22;45702;52.982;6.658;2023-06-19T08:15:13;21.10;99.90
58865;DHT22;45702;52.982;6.658;2023-06-19T08:17:40;21.10;99.90
58865;DHT22;45702;52.982;6.658;2023-06-19T08:20:06;21.10;99.90
58865;DHT22;45702;52.982;6.658;2023-06-19T08:22:33;21.00;99.90
58865;DHT22;45702;52.982;6.658;2023-06-19T08:24:58;21.00;99.90
58865;DHT22;45702;52.982;6.658;2023-06-19T08:27:24;21.00;99.90
58865;DHT22;45702;52.982;6.658;2023-06-19T08:29:50;21.00;99.90
58865;DHT22;45702;52.982;6.658;2023-06-19T08:32:16;21.00;99.70
58865;DHT22;45702;52.982;6.658;2023-06-19T08:34:42;21.00;99.50
58865;DHT22;45702;52.982;6.658;2023-06-19T08:37:07;21.00;99.40
58865;DHT22;45702;52.982;6.658;2023-06-19T08:39:34;20.90;99.30
58865;DHT22;45702;52.982;6.658;2023-06-19T08:42:05;21.00;99.20
58865;DHT22;45702;52.982;6.658;2023-06-19T08:44:31;20.90;99.00
58865;DHT22;45702;52.982;6.658;2023-06-19T08:46:58;20.90;98.80
58865;DHT22;45702;52.982;6.658;2023-06-19T08:49:23;20.90;98.60
58865;DHT22;45702;52.982;6.658;2023-06-19T08:51:49;20.90;98.50
58865;DHT22;45702;52.982;6.658;2023-06-19T08:54:15;20.80;98.40
58865;DHT22;45702;52.982;6.658;2023-06-19T08:56:41;20.80;98.40
58865;DHT22;45702;52.982;6.658;2023-06-19T08:59:12;20.70;98.40
58865;DHT22;45702;52.982;6.658;2023-06-19T09:01:39;20.70;98.50
58865;DHT22;45702;52.982;6.658;2023-06-19T09:04:12;20.70;98.40
58865;DHT22;45702;52.982;6.658;2023-06-19T09:06:53;20.70;98.50
58865;DHT22;45702;52.982;6.658;2023-06-19T09:09:20;20.60;98.40
58865;DHT22;45702;52.982;6.658;2023-06-19T09:12:16;20.70;98.70
58865;DHT22;45702;52.982;6.658;2023-06-19T09:14:44;20.70;98.60
58865;DHT22;45702;52.982;6.658;2023-06-19T09:17:13;20.70;98.90
58865;DHT22;45702;52.982;6.658;2023-06-19T09:19:50;20.70;98.90
58865;DHT22;45702;52.982;6.658;2023-06-19T09:22:17;20.70;98.60
58865;DHT22;45702;52.982;6.658;2023-06-19T09:24:46;20.80;98.20
58865;DHT22;45702;52.982;6.658;2023-06-19T09:27:17;21.00;98.00
58865;DHT22;45702;52.982;6.658;2023-06-19T09:29:45;21.10;97.60
58865;DHT22;45702;52.982;6.658;2023-06-19T09:32:18;21.20;97.40
58865;DHT22;45702;52.982;6.658;2023-06-19T09:34:44;21.20;97.20
58865;DHT22;45702;52.982;6.658;2023-06-19T09:37:10;21.30;96.90
58865;DHT22;45702;52.982;6.658;2023-06-19T09:39:40;21.40;96.40
58865;DHT22;45702;52.982;6.658;2023-06-19T09:42:07;21.40;96.10
58865;DHT22;45702;52.982;6.658;2023-06-19T09:44:40;21.50;96.20
58865;DHT22;45702;52.982;6.658;2023-06-19T09:47:15;21.60;96.10
58865;DHT22;45702;52.982;6.658;2023-06-19T09:49:48;21.60;95.90
58865;DHT22;45702;52.982;6.658;2023-06-19T09:52:15;21.60;95.70
58865;DHT22;45702;52.982;6.658;2023-06-19T09:54:43;21.60;95.70
58865;DHT22;45702;52.982;6.658;2023-06-19T09:57:10;21.60;95.50
58865;DHT22;45702;52.982;6.658;2023-06-19T09:59:38;21.60;95.30
58865;DHT22;45702;52.982;6.658;2023-06-19T10:02:04;21.50;94.70
58865;DHT22;45702;52.982;6.658;2023-06-19T10:04:42;21.50;94.70
58865;DHT22;45702;52.982;6.658;2023-06-19T10:10:06;21.70;94.20
58865;DHT22;45702;52.982;6.658;2023-06-19T10:12:46;21.80;93.80
58865;DHT22;45702;52.982;6.658;2023-06-19T10:15:24;21.80;92.90
58865;DHT22;45702;52.982;6.658;2023-06-19T10:20:28;21.80;92.70
58865;DHT22;45702;52.982;6.658;2023-06-19T10:25:24;21.70;92.50
58865;DHT22;45702;52.982;6.658;2023-06-19T10:27:50;21.60;92.50
58865;DHT22;45702;52.982;6.658;2023-06-19T10:30:20;21.50;92.80
58865;DHT22;45702;52.982;6.658;2023-06-19T10:32:49;21.50;93.00
58865;DHT22;45702;52.982;6.658;2023-06-19T10:35:16;21.60;92.90
58865;DHT22;45702;52.982;6.658;2023-06-19T10:37:43;21.70;92.90
58865;DHT22;45702;52.982;6.658;2023-06-19T10:40:09;21.80;92.90
58865;DHT22;45702;52.982;6.658;2023-06-19T10:42:43;21.80;92.60
58865;DHT22;45702;52.982;6.658;2023-06-19T10:45:11;21.80;92.60
58865;DHT22;45702;52.982;6.658;2023-06-19T10:47:43;21.80;92.60
58865;DHT22;45702;52.982;6.658;2023-06-19T10:50:13;21.80;92.60
58865;DHT22;45702;52.982;6.658;2023-06-19T10:52:43;21.90;92.40
58865;DHT22;45702;52.982;6.658;2023-06-19T10:55:09;21.90;92.30
58865;DHT22;45702;52.982;6.658;2023-06-19T10:57:35;22.00;92.10
58865;DHT22;45702;52.982;6.658;2023-06-19T11:00:02;22.00;91.80
58865;DHT22;45702;52.982;6.658;2023-06-19T11:02:37;22.10;92.00
58865;DHT22;45702;52.982;6.658;2023-06-19T11:05:05;22.20;91.30
58865;DHT22;45702;52.982;6.658;2023-06-19T11:07:32;22.20;91.10
58865;DHT22;45702;52.982;6.658;2023-06-19T11:09:58;22.20;91.00
58865;DHT22;45702;52.982;6.658;2023-06-19T11:12:23;22.30;90.80
58865;DHT22;45702;52.982;6.658;2023-06-19T11:14:49;22.30;90.50
58865;DHT22;45702;52.982;6.658;2023-06-19T11:17:16;22.50;90.60
58865;DHT22;45702;52.982;6.658;2023-06-19T11:19:44;22.70;90.60
58865;DHT22;45702;52.982;6.658;2023-06-19T11:22:10;22.70;90.10
58865;DHT22;45702;52.982;6.658;2023-06-19T11:24:37;22.80;90.20
58865;DHT22;45702;52.982;6.658;2023-06-19T11:27:03;22.80;90.00
58865;DHT22;45702;52.982;6.658;2023-06-19T11:29:33;22.90;89.60
58865;DHT22;45702;52.982;6.658;2023-06-19T11:32:14;23.00;89.30
58865;DHT22;45702;52.982;6.658;2023-06-19T11:34:40;23.00;88.80
58865;DHT22;45702;52.982;6.658;2023-06-19T11:37:13;23.00;88.30
58865;DHT22;45702;52.982;6.658;2023-06-19T11:39:40;23.00;88.20
58865;DHT22;45702;52.982;6.658;2023-06-19T11:42:07;23.00;87.80
58865;DHT22;45702;52.982;6.658;2023-06-19T11:44:33;23.00;88.30
58865;DHT22;45702;52.982;6.658;2023-06-19T11:47:00;23.20;88.10
58865;DHT22;45702;52.982;6.658;2023-06-19T11:49:26;23.40;85.80
58865;DHT22;45702;52.982;6.658;2023-06-19T11:51:51;23.50;83.10
58865;DHT22;45702;52.982;6.658;2023-06-19T11:54:18;23.40;81.50
58865;DHT22;45702;52.982;6.658;2023-06-19T11:56:44;23.40;80.30
58865;DHT22;45702;52.982;6.658;2023-06-19T11:59:10;23.30;79.70
58865;DHT22;45702;52.982;6.658;2023-06-19T12:01:36;23.30;79.80
58865;DHT22;45702;52.982;6.658;2023-06-19T12:04:03;23.30;80.10
58865;DHT22;45702;52.982;6.658;2023-06-19T12:06:30;23.30;80.20
58865;DHT22;45702;52.982;6.658;2023-06-19T12:08:56;23.20;80.80
58865;DHT22;45702;52.982;6.658;2023-06-19T12:11:22;23.20;81.60
58865;DHT22;45702;52.982;6.658;2023-06-19T12:13:48;23.30;81.70
58865;DHT22;45702;52.982;6.658;2023-06-19T12:16:14;23.40;81.50
58865;DHT22;45702;52.982;6.658;2023-06-19T12:18:40;23.60;80.50
58865;DHT22;45702;52.982;6.658;2023-06-19T12:21:06;23.70;80.10
58865;DHT22;45702;52.982;6.658;2023-06-19T12:23:32;23.80;79.40
58865;DHT22;45702;52.982;6.658;2023-06-19T12:25:58;23.90;78.40
58865;DHT22;45702;52.982;6.658;2023-06-19T12:28:24;24.00;78.10
58865;DHT22;45702;52.982;6.658;2023-06-19T12:30:52;24.00;78.90
58865;DHT22;45702;52.982;6.658;2023-06-19T12:33:19;24.10;78.40
58865;DHT22;45702;52.982;6.658;2023-06-19T12:35:46;23.90;78.30
58865;DHT22;45702;52.982;6.658;2023-06-19T12:38:12;23.80;79.00
58865;DHT22;45702;52.982;6.658;2023-06-19T12:40:38;23.70;78.70
58865;DHT22;45702;52.982;6.658;2023-06-19T12:43:05;23.50;79.10
58865;DHT22;45702;52.982;6.658;2023-06-19T12:45:30;23.40;79.20
58865;DHT22;45702;52.982;6.658;2023-06-19T12:47:56;23.30;80.50
58865;DHT22;45702;52.982;6.658;2023-06-19T12:50:22;23.40;79.90
58865;DHT22;45702;52.982;6.658;2023-06-19T12:52:48;23.40;80.60
58865;DHT22;45702;52.982;6.658;2023-06-19T12:55:14;23.50;80.20
58865;DHT22;45702;52.982;6.658;2023-06-19T12:57:40;23.60;79.30
58865;DHT22;45702;52.982;6.658;2023-06-19T13:00:09;23.70;78.70
58865;DHT22;45702;52.982;6.658;2023-06-19T13:02:35;23.70;78.50
58865;DHT22;45702;52.982;6.658;2023-06-19T13:05:01;23.70;78.90
58865;DHT22;45702;52.982;6.658;2023-06-19T13:07:27;23.80;79.10
58865;DHT22;45702;52.982;6.658;2023-06-19T13:09:52;23.90;77.50
58865;DHT22;45702;52.982;6.658;2023-06-19T13:12:18;24.00;77.00
58865;DHT22;45702;52.982;6.658;2023-06-19T13:14:43;24.10;76.40
58865;DHT22;45702;52.982;6.658;2023-06-19T13:17:09;24.20;76.20
58865;DHT22;45702;52.982;6.658;2023-06-19T13:19:35;24.30;74.90
58865;DHT22;45702;52.982;6.658;2023-06-19T13:22:01;24.30;74.60
58865;DHT22;45702;52.982;6.658;2023-06-19T13:24:26;24.40;74.40
58865;DHT22;45702;52.982;6.658;2023-06-19T13:26:53;24.60;73.90
58865;DHT22;45702;52.982;6.658;2023-06-19T13:29:19;24.70;73.10
58865;DHT22;45702;52.982;6.658;2023-06-19T13:31:45;24.90;72.10
58865;DHT22;45702;52.982;6.658;2023-06-19T13:34:11;25.00;70.80
58865;DHT22;45702;52.982;6.658;2023-06-19T13:36:36;25.30;69.60
58865;DHT22;45702;52.982;6.658;2023-06-19T13:39:02;25.70;68.10
58865;DHT22;45702;52.982;6.658;2023-06-19T13:41:28;25.90;66.20
58865;DHT22;45702;52.982;6.658;2023-06-19T13:43:56;26.10;65.70
58865;DHT22;45702;52.982;6.658;2023-06-19T13:46:22;26.30;64.40
58865;DHT22;45702;52.982;6.658;2023-06-19T13:48:48;26.40;62.60
58865;DHT22;45702;52.982;6.658;2023-06-19T13:51:20;26.70;62.10
58865;DHT22;45702;52.982;6.658;2023-06-19T13:53:46;26.50;61.10
58865;DHT22;45702;52.982;6.658;2023-06-19T13:56:12;26.40;61.30
58865;DHT22;45702;52.982;6.658;2023-06-19T13:58:39;26.60;61.50
58865;DHT22;45702;52.982;6.658;2023-06-19T14:01:05;26.90;60.00
58865;DHT22;45702;52.982;6.658;2023-06-19T14:03:31;27.20;58.60
58865;DHT22;45702;52.982;6.658;2023-06-19T14:05:57;27.20;58.00
58865;DHT22;45702;52.982;6.658;2023-06-19T14:08:23;27.10;57.70
58865;DHT22;45702;52.982;6.658;2023-06-19T14:10:50;27.00;58.40
58865;DHT22;45702;52.982;6.658;2023-06-19T14:13:16;27.00;58.90
58865;DHT22;45702;52.982;6.658;2023-06-19T14:15:41;27.00;59.10
58865;DHT22;45702;52.982;6.658;2023-06-19T14:18:07;27.00;58.40
58865;DHT22;45702;52.982;6.658;2023-06-19T14:20:34;27.10;58.20
58865;DHT22;45702;52.982;6.658;2023-06-19T14:23:00;27.20;57.30
58865;DHT22;45702;52.982;6.658;2023-06-19T14:25:25;27.40;56.40
58865;DHT22;45702;52.982;6.658;2023-06-19T14:27:51;27.60;54.90
58865;DHT22;45702;52.982;6.658;2023-06-19T14:30:18;27.70;53.60
58865;DHT22;45702;52.982;6.658;2023-06-19T14:32:44;27.70;53.50
58865;DHT22;45702;52.982;6.658;2023-06-19T14:35:10;27.80;54.20
58865;DHT22;45702;52.982;6.658;2023-06-19T14:37:36;28.00;53.50
58865;DHT22;45702;52.982;6.658;2023-06-19T14:40:01;28.30;53.10
58865;DHT22;45702;52.982;6.658;2023-06-19T14:42:28;28.60;52.20
58865;DHT22;45702;52.982;6.658;2023-06-19T14:44:54;28.60;51.90
58865;DHT22;45702;52.982;6.658;2023-06-19T14:47:20;28.70;51.80
58865;DHT22;45702;52.982;6.658;2023-06-19T14:49:46;28.80;50.50
58865;DHT22;45702;52.982;6.658;2023-06-19T14:52:11;29.10;50.00
58865;DHT22;45702;52.982;6.658;2023-06-19T14:54:37;29.00;50.20
58865;DHT22;45702;52.982;6.658;2023-06-19T14:57:03;28.80;50.60
58865;DHT22;45702;52.982;6.658;2023-06-19T14:59:32;28.80;51.60
58865;DHT22;45702;52.982;6.658;2023-06-19T15:01:58;29.00;51.10
58865;DHT22;45702;52.982;6.658;2023-06-19T15:04:24;29.30;50.90
58865;DHT22;45702;52.982;6.658;2023-06-19T15:06:49;29.70;50.40
58865;DHT22;45702;52.982;6.658;2023-06-19T15:09:15;29.90;50.00
58865;DHT22;45702;52.982;6.658;2023-06-19T15:11:41;30.20;48.80
58865;DHT22;45702;52.982;6.658;2023-06-19T15:14:07;30.30;47.60
58865;DHT22;45702;52.982;6.658;2023-06-19T15:16:32;30.30;47.40
58865;DHT22;45702;52.982;6.658;2023-06-19T15:18:58;30.50;47.30
58865;DHT22;45702;52.982;6.658;2023-06-19T15:21:24;30.70;47.00
58865;DHT22;45702;52.982;6.658;2023-06-19T15:23:53;31.00;47.00
58865;DHT22;45702;52.982;6.658;2023-06-19T15:26:19;31.10;45.30
58865;DHT22;45702;52.982;6.658;2023-06-19T15:28:45;30.60;44.10
58865;DHT22;45702;52.982;6.658;2023-06-19T15:31:12;30.40;44.00
58865;DHT22;45702;52.982;6.658;2023-06-19T15:33:38;30.30;43.30
58865;DHT22;45702;52.982;6.658;2023-06-19T15:36:05;30.20;44.90
58865;DHT22;45702;52.982;6.658;2023-06-19T15:38:30;30.20;44.20
58865;DHT22;45702;52.982;6.658;2023-06-19T15:40:56;30.30;44.40